sensor_id;sensor_type;location;lat;lon;timestamp;temperature;humidity
80228;DHT22;69539;42.138;24.742;2023-07-08T00:00:42;28.90;34.30
80228;DHT22;69539;42.138;24.742;2023-07-08T00:03:09;28.90;34.30
80228;DHT22;69539;42.138;24.742;2023-07-08T00:05:35;28.90;34.20
80228;DHT22;69539;42.138;24.742;2023-07-08T00:08:01;28.90;34.20
80228;DHT22;69539;42.138;24.742;2023-07-08T00:10:27;28.90;34.10
80228;DHT22;69539;42.138;24.742;2023-07-08T00:12:55;28.90;34.10
80228;DHT22;69539;42.138;24.742;2023-07-08T00:15:24;28.90;34.00
80228;DHT22;69539;42.138;24.742;2023-07-08T00:17:50;28.80;33.90
80228;DHT22;69539;42.138;24.742;2023-07-08T00:20:55;28.80;34.00
80228;DHT22;69539;42.138;24.742;2023-07-08T00:23:20;28.80;33.90
80228;DHT22;69539;42.138;24.742;2023-07-08T00:25:47;28.80;35.00
80228;DHT22;69539;42.138;24.742;2023-07-08T00:28:18;28.80;33.70
80228;DHT22;69539;42.138;24.742;2023-07-08T00:30:45;28.80;33.70
80228;DHT22;69539;42.138;24.742;2023-07-08T00:33:11;28.80;33.70
80228;DHT22;69539;42.138;24.742;2023-07-08T00:35:41;28.80;33.70
80228;DHT22;69539;42.138;24.742;2023-07-08T00:41:00;28.80;33.80
80228;DHT22;69539;42.138;24.742;2023-07-08T00:48:44;28.80;33.90
80228;DHT22;69539;42.138;24.742;2023-07-08T00:51:11;28.70;33.80
80228;DHT22;69539;42.138;24.742;2023-07-08T00:53:37;28.70;33.80
80228;DHT22;69539;42.138;24.742;2023-07-08T00:56:05;28.80;34.00
80228;DHT22;69539;42.138;24.742;2023-07-08T00:58:37;28.70;33.90
80228;DHT22;69539;42.138;24.742;2023-07-08T01:01:06;28.70;33.80
80228;DHT22;69539;42.138;24.742;2023-07-08T01:03:35;28.80;34.00
80228;DHT22;69539;42.138;24.742;2023-07-08T01:06:03;28.70;33.90
80228;DHT22;69539;42.138;24.742;2023-07-08T01:08:31;28.70;34.00
80228;DHT22;69539;42.138;24.742;2023-07-08T01:11:02;28.70;34.10
80228;DHT22;69539;42.138;24.742;2023-07-08T01:13:34;28.70;34.00
80228;DHT22;69539;42.138;24.742;2023-07-08T01:16:01;28.60;34.00
80228;DHT22;69539;42.138;24.742;2023-07-08T01:18:27;28.60;34.00
80228;DHT22;69539;42.138;24.742;2023-07-08T01:20:53;28.60;34.10
80228;DHT22;69539;42.138;24.742;2023-07-08T01:23:21;28.60;34.00
80228;DHT22;69539;42.138;24.742;2023-07-08T01:25:47;28.50;34.00
80228;DHT22;69539;42.138;24.742;2023-07-08T01:28:14;28.50;34.20
80228;DHT22;69539;42.138;24.742;2023-07-08T01:30:41;28.50;34.20
80228;DHT22;69539;42.138;24.742;2023-07-08T01:33:17;28.50;34.20
80228;DHT22;69539;42.138;24.742;2023-07-08T01:35:45;28.50;34.30
80228;DHT22;69539;42.138;24.742;2023-07-08T01:38:12;28.40;34.20
80228;DHT22;69539;42.138;24.742;2023-07-08T01:40:48;28.40;34.30
80228;DHT22;69539;42.138;24.742;2023-07-08T01:43:14;28.40;34.20
80228;DHT22;69539;42.138;24.742;2023-07-08T01:45:41;28.40;34.30
80228;DHT22;69539;42.138;24.742;2023-07-08T01:48:10;28.40;34.40
80228;DHT22;69539;42.138;24.742;2023-07-08T01:50:40;28.40;34.40
80228;DHT22;69539;42.138;24.742;2023-07-08T01:53:20;28.40;34.30
80228;DHT22;69539;42.138;24.742;2023-07-08T01:55:46;28.40;34.20
80228;DHT22;69539;42.138;24.742;2023-07-08T01:58:12;28.40;34.20
80228;DHT22;69539;42.138;24.742;2023-07-08T02:00:38;28.30;34.20
80228;DHT22;69539;42.138;24.742;2023-07-08T02:03:04;28.30;34.20
80228;DHT22;69539;42.138;24.742;2023-07-08T02:05:29;28.30;34.20
80228;DHT22;69539;42.138;24.742;2023-07-08T02:07:55;28.30;34.20
80228;DHT22;69539;42.138;24.742;2023-07-08T02:10:21;28.30;34.30
80228;DHT22;69539;42.138;24.742;2023-07-08T02:12:47;28.30;34.20
80228;DHT22;69539;42.138;24.742;2023-07-08T02:15:13;28.30;34.30
80228;DHT22;69539;42.138;24.742;2023-07-08T02:17:39;28.20;34.30
80228;DHT22;69539;42.138;24.742;2023-07-08T02:20:05;28.20;34.30
80228;DHT22;69539;42.138;24.742;2023-07-08T02:22:31;28.20;34.30
80228;DHT22;69539;42.138;24.742;2023-07-08T02:24:56;28.20;34.20
80228;DHT22;69539;42.138;24.742;2023-07-08T02:27:22;28.20;34.30
80228;DHT22;69539;42.138;24.742;2023-07-08T02:29:48;28.20;34.30
80228;DHT22;69539;42.138;24.742;2023-07-08T02:32:13;28.10;34.20
80228;DHT22;69539;42.138;24.742;2023-07-08T02:34:39;28.10;34.20
80228;DHT22;69539;42.138;24.742;2023-07-08T02:37:05;28.10;35.40
80228;DHT22;69539;42.138;24.742;2023-07-08T02:39:30;28.10;34.40
80228;DHT22;69539;42.138;24.742;2023-07-08T02:41:56;28.00;34.30
80228;DHT22;69539;42.138;24.742;2023-07-08T02:44:22;28.00;34.40
80228;DHT22;69539;42.138;24.742;2023-07-08T02:46:48;28.00;34.40
80228;DHT22;69539;42.138;24.742;2023-07-08T02:49:13;28.00;34.40
80228;DHT22;69539;42.138;24.742;2023-07-08T02:51:39;28.00;34.40
80228;DHT22;69539;42.138;24.742;2023-07-08T02:54:05;27.90;34.30
80228;DHT22;69539;42.138;24.742;2023-07-08T02:56:30;28.00;34.40
80228;DHT22;69539;42.138;24.742;2023-07-08T02:58:56;27.90;34.40
80228;DHT22;69539;42.138;24.742;2023-07-08T03:01:22;27.90;34.40
80228;DHT22;69539;42.138;24.742;2023-07-08T03:03:48;27.90;34.30
80228;DHT22;69539;42.138;24.742;2023-07-08T03:06:15;27.90;34.40
80228;DHT22;69539;42.138;24.742;2023-07-08T03:08:41;27.90;34.40
80228;DHT22;69539;42.138;24.742;2023-07-08T03:11:07;27.80;34.40
80228;DHT22;69539;42.138;24.742;2023-07-08T03:13:34;27.80;34.40
80228;DHT22;69539;42.138;24.742;2023-07-08T03:16:01;27.80;34.40
80228;DHT22;69539;42.138;24.742;2023-07-08T03:18:27;27.80;34.50
80228;DHT22;69539;42.138;24.742;2023-07-08T03:20:55;27.80;34.40
80228;DHT22;69539;42.138;24.742;2023-07-08T03:23:22;27.80;34.40
80228;DHT22;69539;42.138;24.742;2023-07-08T03:25:49;27.80;34.40
80228;DHT22;69539;42.138;24.742;2023-07-08T03:28:15;27.80;34.40
80228;DHT22;69539;42.138;24.742;2023-07-08T03:30:42;27.70;34.40
80228;DHT22;69539;42.138;24.742;2023-07-08T03:33:09;27.70;34.40
80228;DHT22;69539;42.138;24.742;2023-07-08T03:35:35;27.70;34.40
80228;DHT22;69539;42.138;24.742;2023-07-08T03:38:02;27.70;34.50
80228;DHT22;69539;42.138;24.742;2023-07-08T03:40:28;27.70;34.50
80228;DHT22;69539;42.138;24.742;2023-07-08T03:42:53;27.70;34.50
80228;DHT22;69539;42.138;24.742;2023-07-08T03:45:19;27.70;34.60
80228;DHT22;69539;42.138;24.742;2023-07-08T03:47:45;27.70;34.80
80228;DHT22;69539;42.138;24.742;2023-07-08T03:50:19;27.60;34.70
80228;DHT22;69539;42.138;24.742;2023-07-08T03:52:46;27.60;34.70
80228;DHT22;69539;42.138;24.742;2023-07-08T03:55:12;27.60;34.70
80228;DHT22;69539;42.138;24.742;2023-07-08T03:57:38;27.60;34.70
80228;DHT22;69539;42.138;24.742;2023-07-08T04:00:04;27.60;34.80
80228;DHT22;69539;42.138;24.742;2023-07-08T04:02:30;27.60;34.90
80228;DHT22;69539;42.138;24.742;2023-07-08T04:04:56;27.50;34.80
80228;DHT22;69539;42.138;24.742;2023-07-08T04:07:22;27.60;35.00
80228;DHT22;69539;42.138;24.742;2023-07-08T04:09:47;27.50;34.90
80228;DHT22;69539;42.138;24.742;2023-07-08T04:12:17;27.60;34.90
80228;DHT22;69539;42.138;24.742;2023-07-08T04:14:43;27.60;34.90
80228;DHT22;69539;42.138;24.742;2023-07-08T04:17:09;27.60;35.00
80228;DHT22;69539;42.138;24.742;2023-07-08T04:19:36;27.60;34.90
80228;DHT22;69539;42.138;24.742;2023-07-08T04:22:02;27.60;35.00
80228;DHT22;69539;42.138;24.742;2023-07-08T04:24:28;27.60;35.00
80228;DHT22;69539;42.138;24.742;2023-07-08T04:26:54;27.60;34.90
80228;DHT22;69539;42.138;24.742;2023-07-08T04:29:21;27.70;34.80
80228;DHT22;69539;42.138;24.742;2023-07-08T04:31:48;27.70;34.90
80228;DHT22;69539;42.138;24.742;2023-07-08T04:34:15;27.70;34.80
80228;DHT22;69539;42.138;24.742;2023-07-08T04:36:41;27.70;34.80
80228;DHT22;69539;42.138;24.742;2023-07-08T04:39:08;27.80;34.90
80228;DHT22;69539;42.138;24.742;2023-07-08T04:41:36;27.80;34.80
80228;DHT22;69539;42.138;24.742;2023-07-08T04:44:08;27.90;34.50
80228;DHT22;69539;42.138;24.742;2023-07-08T04:49:10;28.00;34.60
80228;DHT22;69539;42.138;24.742;2023-07-08T04:51:38;28.10;34.60
80228;DHT22;69539;42.138;24.742;2023-07-08T04:54:04;28.20;34.40
80228;DHT22;69539;42.138;24.742;2023-07-08T04:56:44;28.40;34.40
80228;DHT22;69539;42.138;24.742;2023-07-08T04:59:12;28.50;34.20
80228;DHT22;69539;42.138;24.742;2023-07-08T05:01:39;28.60;34.00
80228;DHT22;69539;42.138;24.742;2023-07-08T05:06:33;28.90;33.60
80228;DHT22;69539;42.138;24.742;2023-07-08T05:08:59;29.00;33.40
80228;DHT22;69539;42.138;24.742;2023-07-08T05:11:26;29.10;33.20
80228;DHT22;69539;42.138;24.742;2023-07-08T05:13:51;29.20;32.90
80228;DHT22;69539;42.138;24.742;2023-07-08T05:16:17;29.30;32.70
80228;DHT22;69539;42.138;24.742;2023-07-08T05:18:44;29.50;32.50
80228;DHT22;69539;42.138;24.742;2023-07-08T05:21:09;29.50;32.30
80228;DHT22;69539;42.138;24.742;2023-07-08T05:23:35;29.70;32.30
80228;DHT22;69539;42.138;24.742;2023-07-08T05:26:03;29.70;31.90
80228;DHT22;69539;42.138;24.742;2023-07-08T05:28:29;29.90;32.00
80228;DHT22;69539;42.138;24.742;2023-07-08T05:30:56;30.00;31.60
80228;DHT22;69539;42.138;24.742;2023-07-08T05:33:23;30.10;31.60
80228;DHT22;69539;42.138;24.742;2023-07-08T05:35:50;30.20;31.50
80228;DHT22;69539;42.138;24.742;2023-07-08T05:38:16;30.30;31.50
80228;DHT22;69539;42.138;24.742;2023-07-08T05:40:41;30.40;31.30
80228;DHT22;69539;42.138;24.742;2023-07-08T05:43:07;30.50;31.30
80228;DHT22;69539;42.138;24.742;2023-07-08T05:45:33;30.60;31.20
80228;DHT22;69539;42.138;24.742;2023-07-08T05:48:01;30.70;31.00
80228;DHT22;69539;42.138;24.742;2023-07-08T05:50:27;30.90;30.90
80228;DHT22;69539;42.138;24.742;2023-07-08T05:52:53;31.00;30.40
80228;DHT22;69539;42.138;24.742;2023-07-08T05:55:18;31.10;30.30
80228;DHT22;69539;42.138;24.742;2023-07-08T05:57:44;31.20;29.90
80228;DHT22;69539;42.138;24.742;2023-07-08T06:00:10;31.30;29.90
80228;DHT22;69539;42.138;24.742;2023-07-08T06:02:36;31.40;29.70
80228;DHT22;69539;42.138;24.742;2023-07-08T06:05:02;31.50;30.00
80228;DHT22;69539;42.138;24.742;2023-07-08T06:07:28;31.60;29.40
80228;DHT22;69539;42.138;24.742;2023-07-08T06:09:54;31.70;33.90
80228;DHT22;69539;42.138;24.742;2023-07-08T06:12:21;31.80;34.00
80228;DHT22;69539;42.138;24.742;2023-07-08T06:14:47;31.90;34.10
80228;DHT22;69539;42.138;24.742;2023-07-08T06:17:13;32.10;36.80
80228;DHT22;69539;42.138;24.742;2023-07-08T06:19:38;32.20;36.20
80228;DHT22;69539;42.138;24.742;2023-07-08T06:22:04;32.30;33.50
80228;DHT22;69539;42.138;24.742;2023-07-08T06:24:30;32.40;36.10
80228;DHT22;69539;42.138;24.742;2023-07-08T06:26:56;32.50;36.30
80228;DHT22;69539;42.138;24.742;2023-07-08T06:29:23;32.70;35.90
80228;DHT22;69539;42.138;24.742;2023-07-08T06:31:49;32.80;33.90
80228;DHT22;69539;42.138;24.742;2023-07-08T06:34:14;32.90;32.20
80228;DHT22;69539;42.138;24.742;2023-07-08T06:36:40;33.00;31.50
80228;DHT22;69539;42.138;24.742;2023-07-08T06:39:06;33.00;30.10
80228;DHT22;69539;42.138;24.742;2023-07-08T06:41:33;33.10;29.50
80228;DHT22;69539;42.138;24.742;2023-07-08T06:43:59;33.20;29.30
80228;DHT22;69539;42.138;24.742;2023-07-08T06:46:25;33.30;28.80
80228;DHT22;69539;42.138;24.742;2023-07-08T06:48:50;33.40;28.70
80228;DHT22;69539;42.138;24.742;2023-07-08T06:51:16;33.50;28.70
80228;DHT22;69539;42.138;24.742;2023-07-08T06:53:42;33.60;27.80
80228;DHT22;69539;42.138;24.742;2023-07-08T06:56:07;33.70;27.30
80228;DHT22;69539;42.138;24.742;2023-07-08T06:58:33;33.80;27.70
80228;DHT22;69539;42.138;24.742;2023-07-08T07:00:59;33.90;27.70
80228;DHT22;69539;42.138;24.742;2023-07-08T07:03:25;34.00;27.50
80228;DHT22;69539;42.138;24.742;2023-07-08T07:05:51;34.10;27.30
80228;DHT22;69539;42.138;24.742;2023-07-08T07:08:16;34.20;27.40
80228;DHT22;69539;42.138;24.742;2023-07-08T07:10:42;34.30;26.30
80228;DHT22;69539;42.138;24.742;2023-07-08T07:13:08;34.40;26.50
80228;DHT22;69539;42.138;24.742;2023-07-08T07:15:34;34.50;26.50
80228;DHT22;69539;42.138;24.742;2023-07-08T07:18:00;34.60;26.00
80228;DHT22;69539;42.138;24.742;2023-07-08T07:20:26;34.70;26.20
80228;DHT22;69539;42.138;24.742;2023-07-08T07:22:52;34.80;25.50
80228;DHT22;69539;42.138;24.742;2023-07-08T07:25:18;34.90;25.60
80228;DHT22;69539;42.138;24.742;2023-07-08T07:27:44;34.90;25.20
80228;DHT22;69539;42.138;24.742;2023-07-08T07:30:10;34.90;25.10
80228;DHT22;69539;42.138;24.742;2023-07-08T07:32:41;34.80;25.20
80228;DHT22;69539;42.138;24.742;2023-07-08T07:35:08;34.80;25.20
80228;DHT22;69539;42.138;24.742;2023-07-08T07:37:38;34.70;25.00
80228;DHT22;69539;42.138;24.742;2023-07-08T07:40:08;34.60;24.80
80228;DHT22;69539;42.138;24.742;2023-07-08T07:42:41;34.60;24.90
80228;DHT22;69539;42.138;24.742;2023-07-08T07:45:08;34.50;24.80
80228;DHT22;69539;42.138;24.742;2023-07-08T07:47:34;34.40;25.10
80228;DHT22;69539;42.138;24.742;2023-07-08T07:49:59;34.40;24.90
80228;DHT22;69539;42.138;24.742;2023-07-08T07:52:25;34.30;25.00
80228;DHT22;69539;42.138;24.742;2023-07-08T07:54:52;34.40;25.20
80228;DHT22;69539;42.138;24.742;2023-07-08T07:57:19;34.50;25.20
80228;DHT22;69539;42.138;24.742;2023-07-08T07:59:46;34.60;25.40
80228;DHT22;69539;42.138;24.742;2023-07-08T08:02:11;34.80;25.20
80228;DHT22;69539;42.138;24.742;2023-07-08T08:04:37;34.90;25.30
80228;DHT22;69539;42.138;24.742;2023-07-08T08:07:03;35.10;24.70
80228;DHT22;69539;42.138;24.742;2023-07-08T08:09:29;35.30;24.90
80228;DHT22;69539;42.138;24.742;2023-07-08T08:11:55;35.40;24.60
80228;DHT22;69539;42.138;24.742;2023-07-08T08:14:21;35.50;24.50
80228;DHT22;69539;42.138;24.742;2023-07-08T08:16:47;35.60;24.20
80228;DHT22;69539;42.138;24.742;2023-07-08T08:19:13;35.70;24.20
80228;DHT22;69539;42.138;24.742;2023-07-08T08:21:39;35.80;24.20
80228;DHT22;69539;42.138;24.742;2023-07-08T08:24:05;35.90;24.00
80228;DHT22;69539;42.138;24.742;2023-07-08T08:26:31;36.00;24.00
80228;DHT22;69539;42.138;24.742;2023-07-08T08:28:57;36.10;23.50
80228;DHT22;69539;42.138;24.742;2023-07-08T08:31:23;36.10;23.20
80228;DHT22;69539;42.138;24.742;2023-07-08T08:33:50;36.30;23.20
80228;DHT22;69539;42.138;24.742;2023-07-08T08:36:16;36.30;23.10
80228;DHT22;69539;42.138;24.742;2023-07-08T08:38:41;36.40;23.00
80228;DHT22;69539;42.138;24.742;2023-07-08T08:41:16;36.40;23.00
80228;DHT22;69539;42.138;24.742;2023-07-08T08:43:43;36.50;22.50
80228;DHT22;69539;42.138;24.742;2023-07-08T08:46:30;36.60;22.50
80228;DHT22;69539;42.138;24.742;2023-07-08T08:49:18;36.60;22.20
80228;DHT22;69539;42.138;24.742;2023-07-08T08:51:48;36.60;22.10
80228;DHT22;69539;42.138;24.742;2023-07-08T08:54:14;36.60;22.10
80228;DHT22;69539;42.138;24.742;2023-07-08T09:01:57;36.80;21.70
80228;DHT22;69539;42.138;24.742;2023-07-08T09:04:29;36.80;22.00
80228;DHT22;69539;42.138;24.742;2023-07-08T09:07:04;36.80;21.70
80228;DHT22;69539;42.138;24.742;2023-07-08T09:09:41;36.70;21.80
80228;DHT22;69539;42.138;24.742;2023-07-08T09:12:16;36.60;21.70
80228;DHT22;69539;42.138;24.742;2023-07-08T09:14:43;36.60;22.00
80228;DHT22;69539;42.138;24.742;2023-07-08T09:17:22;36.70;22.00
80228;DHT22;69539;42.138;24.742;2023-07-08T09:25:20;36.80;21.90
80228;DHT22;69539;42.138;24.742;2023-07-08T09:27:47;36.70;21.90
80228;DHT22;69539;42.138;24.742;2023-07-08T09:30:15;36.70;22.00
80228;DHT22;69539;42.138;24.742;2023-07-08T09:32:41;36.60;21.80
80228;DHT22;69539;42.138;24.742;2023-07-08T09:35:08;36.60;21.90
80228;DHT22;69539;42.138;24.742;2023-07-08T09:37:37;36.60;21.90
80228;DHT22;69539;42.138;24.742;2023-07-08T09:40:16;36.50;21.90
80228;DHT22;69539;42.138;24.742;2023-07-08T09:42:44;36.60;21.80
80228;DHT22;69539;42.138;24.742;2023-07-08T09:45:18;36.60;21.90
80228;DHT22;69539;42.138;24.742;2023-07-08T09:47:45;36.70;22.00
80228;DHT22;69539;42.138;24.742;2023-07-08T09:50:21;36.70;22.00
80228;DHT22;69539;42.138;24.742;2023-07-08T09:52:48;36.80;21.70
80228;DHT22;69539;42.138;24.742;2023-07-08T09:55:15;36.80;21.70
80228;DHT22;69539;42.138;24.742;2023-07-08T09:57:43;36.80;21.70
80228;DHT22;69539;42.138;24.742;2023-07-08T10:00:13;36.80;21.80
80228;DHT22;69539;42.138;24.742;2023-07-08T10:03:26;36.80;21.70
80228;DHT22;69539;42.138;24.742;2023-07-08T10:05:55;36.90;21.70
80228;DHT22;69539;42.138;24.742;2023-07-08T10:08:25;36.90;21.70
80228;DHT22;69539;42.138;24.742;2023-07-08T10:11:03;36.90;21.50
80228;DHT22;69539;42.138;24.742;2023-07-08T10:18:39;36.90;21.50
80228;DHT22;69539;42.138;24.742;2023-07-08T10:27:06;36.70;22.00
80228;DHT22;69539;42.138;24.742;2023-07-08T10:45:34;36.50;22.00
80228;DHT22;69539;42.138;24.742;2023-07-08T10:53:39;36.50;22.80
80228;DHT22;69539;42.138;24.742;2023-07-08T11:07:03;36.30;21.80
80228;DHT22;69539;42.138;24.742;2023-07-08T11:12:27;36.30;21.70
80228;DHT22;69539;42.138;24.742;2023-07-08T11:17:32;36.30;21.60
80228;DHT22;69539;42.138;24.742;2023-07-08T11:20:25;36.20;21.50
80228;DHT22;69539;42.138;24.742;2023-07-08T11:25:35;36.20;21.50
80228;DHT22;69539;42.138;24.742;2023-07-08T11:28:04;36.20;21.60
80228;DHT22;69539;42.138;24.742;2023-07-08T11:30:30;36.20;21.50
80228;DHT22;69539;42.138;24.742;2023-07-08T11:33:02;36.20;21.60
80228;DHT22;69539;42.138;24.742;2023-07-08T11:35:40;36.20;21.50
80228;DHT22;69539;42.138;24.742;2023-07-08T11:38:13;36.20;21.60
80228;DHT22;69539;42.138;24.742;2023-07-08T11:41:13;36.20;21.60
80228;DHT22;69539;42.138;24.742;2023-07-08T11:43:51;36.20;21.60
80228;DHT22;69539;42.138;24.742;2023-07-08T11:46:23;36.10;21.50
80228;DHT22;69539;42.138;24.742;2023-07-08T11:48:56;36.10;21.50
80228;DHT22;69539;42.138;24.742;2023-07-08T11:51:34;36.10;21.50
80228;DHT22;69539;42.138;24.742;2023-07-08T11:57:07;36.20;21.60
80228;DHT22;69539;42.138;24.742;2023-07-08T11:59:41;36.10;21.60
80228;DHT22;69539;42.138;24.742;2023-07-08T12:02:12;36.10;21.80
80228;DHT22;69539;42.138;24.742;2023-07-08T12:05:03;36.10;21.70
80228;DHT22;69539;42.138;24.742;2023-07-08T12:07:47;36.00;21.70
80228;DHT22;69539;42.138;24.742;2023-07-08T12:12:42;36.10;22.50
80228;DHT22;69539;42.138;24.742;2023-07-08T12:17:48;36.10;21.80
80228;DHT22;69539;42.138;24.742;2023-07-08T12:22:47;36.10;21.70
80228;DHT22;69539;42.138;24.742;2023-07-08T12:25:16;36.00;21.80
80228;DHT22;69539;42.138;24.742;2023-07-08T12:27:44;36.00;21.90
80228;DHT22;69539;42.138;24.742;2023-07-08T12:30:11;36.00;21.80
80228;DHT22;69539;42.138;24.742;2023-07-08T12:32:39;36.00;21.80
80228;DHT22;69539;42.138;24.742;2023-07-08T12:35:19;36.00;21.80
80228;DHT22;69539;42.138;24.742;2023-07-08T12:37:46;36.00;22.00
80228;DHT22;69539;42.138;24.742;2023-07-08T12:40:12;36.00;22.00
80228;DHT22;69539;42.138;24.742;2023-07-08T12:42:39;36.00;21.70
80228;DHT22;69539;42.138;24.742;2023-07-08T12:45:18;36.00;21.40
80228;DHT22;69539;42.138;24.742;2023-07-08T12:47:45;36.00;21.40
80228;DHT22;69539;42.138;24.742;2023-07-08T12:50:12;36.00;21.60
80228;DHT22;69539;42.138;24.742;2023-07-08T12:52:38;35.90;21.20
80228;DHT22;69539;42.138;24.742;2023-07-08T12:55:04;35.90;21.20
80228;DHT22;69539;42.138;24.742;2023-07-08T12:57:31;35.90;21.40
80228;DHT22;69539;42.138;24.742;2023-07-08T12:59:57;35.80;21.40
80228;DHT22;69539;42.138;24.742;2023-07-08T13:02:25;35.80;21.60
80228;DHT22;69539;42.138;24.742;2023-07-08T13:04:59;35.70;21.60
80228;DHT22;69539;42.138;24.742;2023-07-08T13:07:46;35.70;21.80
80228;DHT22;69539;42.138;24.742;2023-07-08T13:10:23;35.60;21.80
80228;DHT22;69539;42.138;24.742;2023-07-08T13:12:57;35.60;22.00
80228;DHT22;69539;42.138;24.742;2023-07-08T13:15:31;35.50;22.00
80228;DHT22;69539;42.138;24.742;2023-07-08T13:17:58;35.40;22.20
80228;DHT22;69539;42.138;24.742;2023-07-08T13:20:25;35.30;22.30
80228;DHT22;69539;42.138;24.742;2023-07-08T13:23:01;35.30;22.50
80228;DHT22;69539;42.138;24.742;2023-07-08T13:25:30;35.20;22.80
80228;DHT22;69539;42.138;24.742;2023-07-08T13:28:02;35.10;23.20
80228;DHT22;69539;42.138;24.742;2023-07-08T13:30:30;35.00;23.90
80228;DHT22;69539;42.138;24.742;2023-07-08T13:32:57;34.80;24.60
80228;DHT22;69539;42.138;24.742;2023-07-08T13:35:27;34.70;25.20
80228;DHT22;69539;42.138;24.742;2023-07-08T13:37:54;34.60;25.70
80228;DHT22;69539;42.138;24.742;2023-07-08T13:40:20;34.40;26.20
80228;DHT22;69539;42.138;24.742;2023-07-08T13:42:50;34.20;26.50
80228;DHT22;69539;42.138;24.742;2023-07-08T13:45:22;34.10;26.60
80228;DHT22;69539;42.138;24.742;2023-07-08T13:48:02;34.10;26.80
80228;DHT22;69539;42.138;24.742;2023-07-08T13:50:39;33.90;26.90
80228;DHT22;69539;42.138;24.742;2023-07-08T13:53:16;33.90;26.70
80228;DHT22;69539;42.138;24.742;2023-07-08T13:55:42;33.80;26.80
80228;DHT22;69539;42.138;24.742;2023-07-08T13:58:16;33.70;27.10
80228;DHT22;69539;42.138;24.742;2023-07-08T14:00:42;33.60;27.20
80228;DHT22;69539;42.138;24.742;2023-07-08T14:03:11;33.50;27.00
80228;DHT22;69539;42.138;24.742;2023-07-08T14:05:38;33.40;27.00
80228;DHT22;69539;42.138;24.742;2023-07-08T14:08:15;33.30;27.30
80228;DHT22;69539;42.138;24.742;2023-07-08T14:10:41;33.20;27.40
80228;DHT22;69539;42.138;24.742;2023-07-08T14:13:07;33.10;28.10
80228;DHT22;69539;42.138;24.742;2023-07-08T14:15:33;33.00;28.70
80228;DHT22;69539;42.138;24.742;2023-07-08T14:18:02;32.90;29.20
80228;DHT22;69539;42.138;24.742;2023-07-08T14:20:29;32.70;29.10
80228;DHT22;69539;42.138;24.742;2023-07-08T14:22:55;32.70;29.30
80228;DHT22;69539;42.138;24.742;2023-07-08T14:25:21;32.50;29.30
80228;DHT22;69539;42.138;24.742;2023-07-08T14:27:49;32.40;29.30
80228;DHT22;69539;42.138;24.742;2023-07-08T14:30:15;32.30;29.20
80228;DHT22;69539;42.138;24.742;2023-07-08T14:32:41;32.20;29.00
80228;DHT22;69539;42.138;24.742;2023-07-08T14:37:39;32.00;28.90
80228;DHT22;69539;42.138;24.742;2023-07-08T14:40:26;31.90;28.60
80228;DHT22;69539;42.138;24.742;2023-07-08T14:43:05;31.80;28.70
80228;DHT22;69539;42.138;24.742;2023-07-08T14:45:40;31.80;29.00
80228;DHT22;69539;42.138;24.742;2023-07-08T14:48:11;31.80;29.00
80228;DHT22;69539;42.138;24.742;2023-07-08T14:50:37;31.70;28.30
80228;DHT22;69539;42.138;24.742;2023-07-08T14:53:03;31.70;28.00
80228;DHT22;69539;42.138;24.742;2023-07-08T14:55:29;31.70;27.90
80228;DHT22;69539;42.138;24.742;2023-07-08T14:57:56;31.70;28.60
80228;DHT22;69539;42.138;24.742;2023-07-08T15:00:22;31.60;29.00
80228;DHT22;69539;42.138;24.742;2023-07-08T15:02:50;31.60;29.40
80228;DHT22;69539;42.138;24.742;2023-07-08T15:05:19;31.60;29.70
80228;DHT22;69539;42.138;24.742;2023-07-08T15:07:54;31.60;29.80
80228;DHT22;69539;42.138;24.742;2023-07-08T15:10:22;31.60;29.70
80228;DHT22;69539;42.138;24.742;2023-07-08T15:12:49;31.60;29.50
80228;DHT22;69539;42.138;24.742;2023-07-08T15:15:18;31.60;29.50
80228;DHT22;69539;42.138;24.742;2023-07-08T15:17:48;31.60;29.30
80228;DHT22;69539;42.138;24.742;2023-07-08T15:20:14;31.60;29.20
80228;DHT22;69539;42.138;24.742;2023-07-08T15:22:44;31.60;29.20
80228;DHT22;69539;42.138;24.742;2023-07-08T15:25:11;31.60;29.30
80228;DHT22;69539;42.138;24.742;2023-07-08T15:27:38;31.60;29.30
80228;DHT22;69539;42.138;24.742;2023-07-08T15:30:17;31.60;29.90
80228;DHT22;69539;42.138;24.742;2023-07-08T15:32:44;31.60;29.30
80228;DHT22;69539;42.138;24.742;2023-07-08T15:35:18;31.50;29.40
80228;DHT22;69539;42.138;24.742;2023-07-08T15:37:44;31.50;29.80
80228;DHT22;69539;42.138;24.742;2023-07-08T15:40:13;31.50;30.00
80228;DHT22;69539;42.138;24.742;2023-07-08T15:42:39;31.50;30.00
80228;DHT22;69539;42.138;24.742;2023-07-08T15:45:16;31.40;30.20
80228;DHT22;69539;42.138;24.742;2023-07-08T15:47:43;31.40;30.40
80228;DHT22;69539;42.138;24.742;2023-07-08T15:50:20;31.40;30.20
80228;DHT22;69539;42.138;24.742;2023-07-08T15:52:46;31.30;30.10
80228;DHT22;69539;42.138;24.742;2023-07-08T15:55:14;31.30;30.20
80228;DHT22;69539;42.138;24.742;2023-07-08T15:57:45;31.30;30.40
80228;DHT22;69539;42.138;24.742;2023-07-08T16:00:20;31.30;30.30
80228;DHT22;69539;42.138;24.742;2023-07-08T16:02:56;31.20;30.30
80228;DHT22;69539;42.138;24.742;2023-07-08T16:05:22;31.20;30.30
80228;DHT22;69539;42.138;24.742;2023-07-08T16:07:49;31.30;31.60
80228;DHT22;69539;42.138;24.742;2023-07-08T16:10:16;31.20;30.30
80228;DHT22;69539;42.138;24.742;2023-07-08T16:12:42;31.20;30.30
80228;DHT22;69539;42.138;24.742;2023-07-08T16:15:19;31.20;30.50
80228;DHT22;69539;42.138;24.742;2023-07-08T16:17:49;31.10;30.50
80228;DHT22;69539;42.138;24.742;2023-07-08T16:20:18;31.20;30.50
80228;DHT22;69539;42.138;24.742;2023-07-08T16:22:45;31.10;30.00
80228;DHT22;69539;42.138;24.742;2023-07-08T16:25:13;31.20;29.70
80228;DHT22;69539;42.138;24.742;2023-07-08T16:27:39;31.20;29.70
80228;DHT22;69539;42.138;24.742;2023-07-08T16:30:05;31.10;29.50
80228;DHT22;69539;42.138;24.742;2023-07-08T16:32:33;31.10;29.40
80228;DHT22;69539;42.138;24.742;2023-07-08T16:34:59;31.10;29.30
80228;DHT22;69539;42.138;24.742;2023-07-08T16:37:24;31.10;29.10
80228;DHT22;69539;42.138;24.742;2023-07-08T16:39:50;31.10;29.10
80228;DHT22;69539;42.138;24.742;2023-07-08T16:42:16;31.10;29.30
80228;DHT22;69539;42.138;24.742;2023-07-08T16:44:42;31.10;29.40
80228;DHT22;69539;42.138;24.742;2023-07-08T16:47:08;31.10;29.40
80228;DHT22;69539;42.138;24.742;2023-07-08T16:49:34;31.00;29.40
80228;DHT22;69539;42.138;24.742;2023-07-08T16:52:00;31.00;29.70